createdAt,value
2023-01-29T00:02:01.463Z,32.63
2023-01-29T00:04:30.430Z,30.10
2023-01-29T00:06:58.179Z,31.27
2023-01-29T00:09:25.745Z,32.60
2023-01-29T00:11:53.315Z,31.40
2023-01-29T00:14:21.165Z,30.47
2023-01-29T00:16:48.767Z,32.40
2023-01-29T00:19:17.446Z,29.60
2023-01-29T00:21:46.754Z,31.70
2023-01-29T00:24:14.418Z,30.07
2023-01-29T00:26:43.139Z,29.63
2023-01-29T00:29:11.041Z,28.20
2023-01-29T00:31:39.103Z,29.80
2023-01-29T00:34:06.723Z,29.47
2023-01-29T00:36:34.334Z,30.00
2023-01-29T00:39:10.813Z,28.97
2023-01-29T00:41:56.586Z,28.20
2023-01-29T00:44:41.607Z,29.97
2023-01-29T00:47:29.901Z,27.50
2023-01-29T00:49:58.182Z,28.23
2023-01-29T00:52:25.857Z,27.70
2023-01-29T00:54:56.642Z,29.80
2023-01-29T00:57:25.000Z,28.23
2023-01-29T00:59:52.703Z,27.17
2023-01-29T01:02:38.202Z,28.30
2023-01-29T01:05:10.281Z,28.60
2023-01-29T01:07:37.862Z,28.50
2023-01-29T01:10:21.953Z,29.97
2023-01-29T01:12:51.995Z,30.60
2023-01-29T01:15:20.159Z,28.73
2023-01-29T01:17:48.836Z,29.47
2023-01-29T01:20:17.024Z,28.20
2023-01-29T01:22:44.801Z,30.70
2023-01-29T01:25:13.968Z,28.87
2023-01-29T01:27:41.930Z,28.53
2023-01-29T01:30:12.590Z,28.10
2023-01-29T01:32:40.882Z,28.00
2023-01-29T01:35:09.842Z,29.67
2023-01-29T01:37:38.694Z,28.23
2023-01-29T01:40:12.650Z,27.50
2023-01-29T01:42:41.848Z,27.60
2023-01-29T01:45:20.565Z,28.33
2023-01-29T01:47:51.572Z,27.50
2023-01-29T01:50:23.567Z,27.63
2023-01-29T01:52:56.645Z,28.40
2023-01-29T01:55:27.815Z,29.20
2023-01-29T01:58:00.887Z,27.70
2023-01-29T02:00:28.879Z,27.50
2023-01-29T02:03:14.178Z,26.20
2023-01-29T02:06:00.523Z,27.07
2023-01-29T02:08:54.485Z,27.10
2023-01-29T02:11:22.190Z,27.90
2023-01-29T02:13:53.669Z,28.30
2023-01-29T02:16:22.081Z,29.80
2023-01-29T02:18:50.958Z,28.47
2023-01-29T02:21:46.308Z,27.60
2023-01-29T02:24:55.447Z,27.87
2023-01-29T02:27:28.261Z,29.17
2023-01-29T02:30:04.437Z,28.67
2023-01-29T02:32:40.401Z,29.33
2023-01-29T02:35:29.704Z,28.80
2023-01-29T02:38:06.516Z,28.20
2023-01-29T02:40:41.347Z,28.80
2023-01-29T02:43:18.853Z,27.83
2023-01-29T02:45:52.831Z,29.07
2023-01-29T02:48:23.301Z,28.80
2023-01-29T02:50:59.432Z,29.27
2023-01-29T02:53:33.595Z,30.27
2023-01-29T02:56:08.713Z,29.47
2023-01-29T02:58:42.740Z,30.50
2023-01-29T03:01:16.762Z,29.20
2023-01-29T03:03:48.846Z,28.53
2023-01-29T03:06:22.363Z,30.40
2023-01-29T03:08:56.275Z,28.57
2023-01-29T03:11:24.359Z,29.03
2023-01-29T03:13:57.758Z,28.70
2023-01-29T03:16:34.252Z,27.60
2023-01-29T03:19:06.581Z,27.30
2023-01-29T03:21:55.008Z,27.20
2023-01-29T03:24:52.332Z,27.93
2023-01-29T03:27:41.629Z,26.77
2023-01-29T03:30:31.313Z,27.30
2023-01-29T03:33:04.562Z,28.43
2023-01-29T03:35:37.485Z,28.00
2023-01-29T03:38:05.879Z,28.20
2023-01-29T03:40:40.213Z,27.20
2023-01-29T03:43:15.072Z,27.50
2023-01-29T03:45:55.054Z,27.13
2023-01-29T03:48:33.797Z,28.27
2023-01-29T03:51:11.825Z,27.50
2023-01-29T03:53:44.986Z,26.47
2023-01-29T03:56:26.363Z,28.07
2023-01-29T03:58:59.992Z,26.80
2023-01-29T04:01:34.443Z,26.90
2023-01-29T04:04:10.426Z,26.60
2023-01-29T04:06:41.421Z,26.63
2023-01-29T04:09:14.707Z,27.33
2023-01-29T04:11:46.719Z,27.03
2023-01-29T04:14:15.523Z,27.33
2023-01-29T04:16:48.292Z,27.13
2023-01-29T04:19:17.922Z,27.43
2023-01-29T04:21:49.428Z,26.47
2023-01-29T04:24:18.061Z,27.10
2023-01-29T04:26:57.091Z,26.70
2023-01-29T04:29:38.828Z,26.73
2023-01-29T04:32:15.828Z,26.87
2023-01-29T04:34:56.695Z,28.47
2023-01-29T04:37:36.205Z,27.43
2023-01-29T04:40:16.201Z,27.90
2023-01-29T04:42:51.135Z,26.93
2023-01-29T04:45:25.258Z,27.67
2023-01-29T04:48:06.220Z,27.30
2023-01-29T04:50:39.564Z,27.53
2023-01-29T04:53:16.424Z,28.03
2023-01-29T04:55:50.661Z,28.87
2023-01-29T04:58:27.372Z,28.90
2023-01-29T05:00:56.059Z,29.80
2023-01-29T05:03:27.625Z,28.40
2023-01-29T05:05:59.168Z,29.00
2023-01-29T05:08:29.652Z,28.57
2023-01-29T05:10:58.743Z,28.03
2023-01-29T05:13:29.281Z,28.00
2023-01-29T05:16:01.378Z,29.37
2023-01-29T05:18:30.301Z,28.53
2023-01-29T05:21:03.141Z,27.77
2023-01-29T05:23:30.945Z,28.53
2023-01-29T05:25:59.110Z,28.43
2023-01-29T05:28:25.778Z,28.80
2023-01-29T05:30:56.065Z,29.70
2023-01-29T05:33:27.629Z,28.53
2023-01-29T05:35:56.152Z,28.40
2023-01-29T05:38:25.117Z,28.33
2023-01-29T05:40:52.790Z,28.70
2023-01-29T05:43:22.180Z,28.40
2023-01-29T05:45:54.386Z,28.53
2023-01-29T05:48:22.024Z,29.23
2023-01-29T05:50:49.964Z,27.80
2023-01-29T05:53:17.655Z,27.77
2023-01-29T05:55:47.872Z,27.60
2023-01-29T05:58:15.599Z,27.30
2023-01-29T06:00:43.190Z,27.50
2023-01-29T06:03:10.871Z,26.70
2023-01-29T06:05:39.348Z,26.63
2023-01-29T06:08:08.390Z,26.07
2023-01-29T06:10:36.382Z,26.70
2023-01-29T06:13:05.391Z,27.20
2023-01-29T06:15:33.055Z,27.17
2023-01-29T06:18:00.742Z,28.37
2023-01-29T06:20:28.468Z,27.93
2023-01-29T06:22:56.221Z,28.90
2023-01-29T06:25:23.960Z,28.47
2023-01-29T06:27:51.792Z,27.70
2023-01-29T06:30:21.101Z,28.90
2023-01-29T06:32:48.721Z,29.77
2023-01-29T06:35:16.382Z,29.73
2023-01-29T06:37:44.039Z,30.27
2023-01-29T06:40:13.016Z,28.80
2023-01-29T06:42:40.579Z,29.07
2023-01-29T06:45:09.660Z,27.43
2023-01-29T06:47:38.599Z,28.00
2023-01-29T06:50:06.903Z,29.03
2023-01-29T06:52:34.494Z,29.40
2023-01-29T06:55:02.076Z,30.87
2023-01-29T06:57:29.989Z,31.03
2023-01-29T06:59:57.864Z,30.40
2023-01-29T07:02:25.515Z,31.23
2023-01-29T07:04:54.692Z,30.43
2023-01-29T07:07:22.288Z,32.13
2023-01-29T07:09:49.865Z,30.90
2023-01-29T07:12:18.273Z,30.73
2023-01-29T07:14:45.952Z,30.00
2023-01-29T07:17:13.646Z,30.47
2023-01-29T07:19:41.436Z,30.00
2023-01-29T07:22:10.373Z,30.50
2023-01-29T07:24:38.032Z,30.00
2023-01-29T07:27:05.720Z,29.63
2023-01-29T07:29:33.305Z,29.03
2023-01-29T07:32:01.345Z,27.73
2023-01-29T07:34:29.100Z,28.80
2023-01-29T07:36:56.825Z,29.60
2023-01-29T07:39:25.921Z,28.87
2023-01-29T07:41:53.505Z,28.60
2023-01-29T07:44:21.100Z,26.80
2023-01-29T07:46:48.699Z,28.17
2023-01-29T07:49:16.738Z,27.53
2023-01-29T07:51:44.399Z,28.33
2023-01-29T07:54:12.607Z,27.90
2023-01-29T07:56:41.659Z,28.60
2023-01-29T07:59:09.279Z,29.23
2023-01-29T08:01:36.874Z,30.47
2023-01-29T08:04:04.532Z,29.43
2023-01-29T08:06:32.246Z,29.57
2023-01-29T08:08:59.879Z,28.70
2023-01-29T08:11:27.573Z,28.47
2023-01-29T08:13:57.393Z,29.57
2023-01-29T08:16:24.996Z,29.30
2023-01-29T08:18:52.574Z,29.73
2023-01-29T08:21:20.211Z,29.60
2023-01-29T08:23:47.804Z,30.13
2023-01-29T08:26:15.447Z,29.27
2023-01-29T08:28:43.066Z,29.87
2023-01-29T08:31:16.420Z,30.10
2023-01-29T08:33:44.045Z,29.83
2023-01-29T08:36:11.832Z,27.90
2023-01-29T08:38:39.814Z,28.07
2023-01-29T08:41:08.434Z,28.20
2023-01-29T08:43:36.961Z,30.10
2023-01-29T08:46:05.860Z,31.10
2023-01-29T08:48:35.601Z,30.63
2023-01-29T08:51:04.525Z,32.33
2023-01-29T08:53:32.677Z,31.43
2023-01-29T08:56:00.318Z,30.90
2023-01-29T08:58:28.115Z,33.03
2023-01-29T09:00:55.731Z,33.33
2023-01-29T09:03:23.319Z,33.60
2023-01-29T09:05:52.252Z,33.37
2023-01-29T09:08:19.853Z,31.43
2023-01-29T09:10:47.536Z,30.80
2023-01-29T09:13:15.176Z,30.33
2023-01-29T09:15:42.788Z,30.10
2023-01-29T09:18:10.440Z,29.10
2023-01-29T09:20:38.823Z,29.37
2023-01-29T09:23:09.800Z,29.10
2023-01-29T09:25:38.476Z,29.30
2023-01-29T09:28:07.141Z,28.20
2023-01-29T09:30:37.639Z,31.00
2023-01-29T09:33:05.782Z,28.90
2023-01-29T09:35:33.781Z,28.87
2023-01-29T09:38:02.160Z,30.10
2023-01-29T09:40:36.525Z,30.50
2023-01-29T09:43:07.615Z,32.27
2023-01-29T09:45:36.796Z,31.00
2023-01-29T09:48:06.732Z,33.10
2023-01-29T09:50:39.961Z,33.37
2023-01-29T09:53:18.348Z,33.30
2023-01-29T09:55:51.340Z,34.53
2023-01-29T09:58:23.826Z,32.27
2023-01-29T10:01:00.304Z,31.27
2023-01-29T10:03:44.662Z,30.47
2023-01-29T10:06:30.435Z,30.13
2023-01-29T10:09:24.768Z,31.20
2023-01-29T10:12:00.847Z,31.47
2023-01-29T10:14:40.575Z,31.60
2023-01-29T10:17:25.142Z,30.90
2023-01-29T10:20:07.957Z,31.47
2023-01-29T10:23:01.258Z,33.23
2023-01-29T10:25:29.082Z,33.00
2023-01-29T10:28:01.351Z,33.00
2023-01-29T10:30:33.315Z,31.33
2023-01-29T10:33:04.268Z,31.23
2023-01-29T10:35:35.796Z,33.07
2023-01-29T10:38:19.580Z,31.13
2023-01-29T10:40:54.072Z,30.33
2023-01-29T10:43:30.549Z,31.60
2023-01-29T10:46:13.247Z,32.03
2023-01-29T10:48:50.279Z,31.50
2023-01-29T10:51:31.978Z,34.13
2023-01-29T10:54:13.242Z,33.57
2023-01-29T10:56:57.083Z,32.90
2023-01-29T10:59:40.453Z,33.73
2023-01-29T11:02:16.155Z,35.60
2023-01-29T11:04:43.807Z,34.23
2023-01-29T11:07:12.628Z,34.63
2023-01-29T11:09:44.878Z,34.90
2023-01-29T11:12:15.283Z,35.33
2023-01-29T11:14:51.635Z,34.00
2023-01-29T11:17:20.768Z,33.60
2023-01-29T11:19:51.157Z,34.93
2023-01-29T11:22:20.828Z,35.30
2023-01-29T11:25:07.678Z,35.90
2023-01-29T11:27:40.783Z,34.83
2023-01-29T11:30:17.615Z,36.90
2023-01-29T11:32:45.669Z,36.23
2023-01-29T11:35:22.629Z,36.03
2023-01-29T11:37:50.325Z,36.60
2023-01-29T11:40:36.718Z,35.10
2023-01-29T11:43:19.952Z,35.57
2023-01-29T11:45:51.072Z,35.50
2023-01-29T11:48:20.842Z,33.87
2023-01-29T11:50:58.355Z,35.17
2023-01-29T11:53:37.192Z,32.93
2023-01-29T11:56:17.550Z,33.33
2023-01-29T11:58:46.702Z,34.10
2023-01-29T12:01:19.139Z,34.60
2023-01-29T12:03:51.894Z,34.13
2023-01-29T12:06:22.993Z,33.70
2023-01-29T12:08:57.015Z,34.23
2023-01-29T12:11:30.542Z,34.13
2023-01-29T12:14:00.774Z,34.60
2023-01-29T12:16:34.451Z,35.70
2023-01-29T12:19:12.046Z,38.00
2023-01-29T12:21:48.030Z,38.10
2023-01-29T12:24:30.388Z,38.70
2023-01-29T12:27:08.483Z,38.93
2023-01-29T12:29:44.559Z,40.30
2023-01-29T12:32:27.322Z,40.93
2023-01-29T12:35:02.659Z,40.20
2023-01-29T12:37:41.750Z,42.57
2023-01-29T12:40:14.825Z,39.30
2023-01-29T12:42:47.054Z,40.53
2023-01-29T12:45:19.050Z,40.50
2023-01-29T12:47:52.959Z,39.53
2023-01-29T12:50:23.014Z,37.73
2023-01-29T12:52:54.777Z,39.13
2023-01-29T12:55:25.294Z,38.03
2023-01-29T12:57:57.843Z,38.40
2023-01-29T13:00:28.261Z,36.50
2023-01-29T13:03:01.600Z,35.10
2023-01-29T13:05:35.512Z,36.13
2023-01-29T13:08:09.337Z,34.70
2023-01-29T13:10:39.808Z,34.60
2023-01-29T13:13:15.725Z,34.50
2023-01-29T13:15:45.231Z,33.33
2023-01-29T13:18:33.067Z,34.13
2023-01-29T13:21:01.930Z,33.30
2023-01-29T13:23:34.800Z,33.93
2023-01-29T13:26:02.724Z,33.13
2023-01-29T13:28:31.555Z,32.20
2023-01-29T13:31:28.142Z,33.33
2023-01-29T13:34:08.462Z,33.87
2023-01-29T13:36:42.260Z,32.50
2023-01-29T13:39:20.694Z,32.30
2023-01-29T13:41:48.741Z,33.37
2023-01-29T13:44:23.496Z,32.23
2023-01-29T13:46:56.893Z,32.30
2023-01-29T13:49:38.614Z,32.73
2023-01-29T13:52:18.484Z,32.50
2023-01-29T13:54:54.005Z,33.63
2023-01-29T13:57:55.670Z,32.93
2023-01-29T14:00:58.009Z,34.07
2023-01-29T14:04:02.200Z,36.40
2023-01-29T14:06:47.980Z,36.00
2023-01-29T14:09:55.330Z,38.83
2023-01-29T14:12:43.665Z,38.47
2023-01-29T14:15:29.773Z,36.80
2023-01-29T14:18:13.398Z,39.07
2023-01-29T14:20:51.509Z,37.53
2023-01-29T14:23:48.236Z,37.00
2023-01-29T14:26:29.686Z,38.83
2023-01-29T14:29:05.831Z,36.27
2023-01-29T14:31:42.574Z,37.70
2023-01-29T14:34:19.150Z,37.37
2023-01-29T14:36:50.342Z,36.93
2023-01-29T14:39:29.115Z,38.40
2023-01-29T14:41:58.397Z,36.90
2023-01-29T14:44:49.265Z,35.80
2023-01-29T14:47:21.270Z,36.60
2023-01-29T14:49:50.468Z,38.20
2023-01-29T14:52:21.019Z,38.60
2023-01-29T14:54:52.322Z,36.77
2023-01-29T14:57:21.152Z,37.67
2023-01-29T14:59:55.379Z,37.50
2023-01-29T15:02:27.643Z,38.33
2023-01-29T15:04:59.629Z,37.20
2023-01-29T15:07:33.122Z,36.27
2023-01-29T15:10:21.885Z,36.20
2023-01-29T15:12:55.743Z,34.80
2023-01-29T15:15:37.412Z,34.20
2023-01-29T15:18:09.863Z,34.90
2023-01-29T15:20:38.890Z,33.80
2023-01-29T15:23:25.303Z,34.43
2023-01-29T15:25:57.641Z,35.43
2023-01-29T15:28:25.500Z,35.20
2023-01-29T15:30:56.948Z,37.47
2023-01-29T15:33:24.697Z,36.73
2023-01-29T15:36:06.797Z,36.20
2023-01-29T15:38:35.269Z,38.00
2023-01-29T15:41:15.946Z,37.90
2023-01-29T15:43:47.391Z,38.30
2023-01-29T15:46:22.048Z,38.63
2023-01-29T15:48:51.169Z,37.60
2023-01-29T15:51:21.703Z,37.20
2023-01-29T15:53:52.894Z,35.70
2023-01-29T15:56:27.810Z,37.03
2023-01-29T15:58:58.656Z,36.87
2023-01-29T16:01:27.784Z,38.00
2023-01-29T16:03:59.062Z,35.00
2023-01-29T16:06:36.642Z,36.00
2023-01-29T16:09:05.912Z,36.73
2023-01-29T16:11:35.627Z,36.63
2023-01-29T16:14:05.705Z,39.80
2023-01-29T16:16:33.407Z,37.70
2023-01-29T16:19:01.630Z,37.53
2023-01-29T16:21:33.231Z,35.60
2023-01-29T16:24:03.597Z,36.00
2023-01-29T16:26:35.174Z,36.17
2023-01-29T16:29:08.339Z,35.47
2023-01-29T16:31:37.458Z,35.30
2023-01-29T16:34:10.260Z,35.53
2023-01-29T16:36:38.143Z,35.47
2023-01-29T16:39:15.478Z,35.70
2023-01-29T16:41:44.082Z,35.17
2023-01-29T16:44:39.223Z,36.83
2023-01-29T16:47:12.823Z,34.73
2023-01-29T16:49:45.540Z,35.50
2023-01-29T16:52:20.148Z,35.70
2023-01-29T16:54:47.736Z,35.87
2023-01-29T16:57:19.539Z,35.20
2023-01-29T16:59:48.664Z,36.90
2023-01-29T17:02:24.547Z,35.63
2023-01-29T17:04:53.538Z,36.53
2023-01-29T17:07:22.254Z,35.67
2023-01-29T17:09:52.432Z,36.87
2023-01-29T17:12:22.644Z,36.27
2023-01-29T17:14:56.588Z,36.30
2023-01-29T17:17:30.564Z,35.60
2023-01-29T17:19:58.905Z,34.03
2023-01-29T17:22:26.495Z,35.07
2023-01-29T17:24:54.112Z,34.43
2023-01-29T17:27:23.677Z,34.63
2023-01-29T17:29:52.699Z,34.43
2023-01-29T17:32:22.534Z,35.50
2023-01-29T17:34:51.388Z,33.60
2023-01-29T17:37:20.046Z,34.27
2023-01-29T17:39:50.416Z,33.80
2023-01-29T17:42:18.231Z,31.60
2023-01-29T17:44:46.156Z,32.80
2023-01-29T17:47:15.524Z,33.93
2023-01-29T17:49:44.638Z,31.17
2023-01-29T17:52:12.322Z,32.60
2023-01-29T17:54:39.954Z,30.57
2023-01-29T17:57:07.609Z,30.80
2023-01-29T17:59:35.386Z,34.10
2023-01-29T18:02:03.121Z,30.80
2023-01-29T18:04:30.725Z,32.17
2023-01-29T18:06:59.829Z,31.30
2023-01-29T18:09:27.954Z,33.07
2023-01-29T18:11:55.616Z,30.57
2023-01-29T18:14:23.478Z,31.17
2023-01-29T18:16:51.094Z,33.27
2023-01-29T18:19:23.171Z,32.43
2023-01-29T18:21:52.388Z,32.63
2023-01-29T18:24:21.942Z,31.40
2023-01-29T18:26:51.001Z,33.20
2023-01-29T18:29:18.666Z,32.10
2023-01-29T18:31:49.403Z,32.67
2023-01-29T18:34:17.081Z,33.13
2023-01-29T18:36:47.588Z,32.97
2023-01-29T18:39:15.362Z,33.70
2023-01-29T18:41:44.583Z,34.40
2023-01-29T18:44:12.267Z,35.00
2023-01-29T18:46:39.876Z,37.67
2023-01-29T18:49:07.593Z,37.87
2023-01-29T18:51:35.352Z,38.00
2023-01-29T18:54:03.919Z,37.13
2023-01-29T18:56:31.583Z,36.50
2023-01-29T18:59:00.592Z,37.80
2023-01-29T19:01:28.258Z,37.00
2023-01-29T19:03:56.059Z,38.30
2023-01-29T19:06:23.646Z,38.57
2023-01-29T19:08:51.251Z,38.70
2023-01-29T19:11:18.867Z,39.10
2023-01-29T19:13:47.930Z,39.63
2023-01-29T19:16:16.922Z,39.03
2023-01-29T19:18:44.558Z,40.80
2023-01-29T19:21:14.982Z,41.47
2023-01-29T19:23:44.502Z,40.97
2023-01-29T19:26:13.625Z,42.83
2023-01-29T19:28:42.244Z,43.40
2023-01-29T19:31:11.816Z,42.90
2023-01-29T19:33:41.488Z,42.00
2023-01-29T19:36:09.782Z,41.20
2023-01-29T19:38:38.723Z,40.87
2023-01-29T19:41:06.771Z,41.90
2023-01-29T19:43:34.675Z,42.43
2023-01-29T19:46:02.905Z,43.30
2023-01-29T19:48:30.940Z,44.50
2023-01-29T19:51:01.519Z,42.97
2023-01-29T19:53:29.988Z,45.80
2023-01-29T19:55:58.992Z,41.43
2023-01-29T19:58:26.917Z,41.20
2023-01-29T20:00:56.116Z,41.80
2023-01-29T20:03:23.956Z,41.60
2023-01-29T20:05:52.079Z,42.20
2023-01-29T20:08:21.023Z,42.07
2023-01-29T20:10:49.733Z,42.27
2023-01-29T20:13:17.367Z,41.60
2023-01-29T20:15:46.552Z,39.50
2023-01-29T20:18:14.937Z,41.33
2023-01-29T20:20:44.846Z,38.60
2023-01-29T20:23:13.331Z,38.03
2023-01-29T20:25:42.537Z,39.77
2023-01-29T20:28:13.172Z,39.50
2023-01-29T20:30:42.045Z,37.43
2023-01-29T20:33:12.972Z,37.80
2023-01-29T20:35:40.763Z,38.93
2023-01-29T20:38:08.475Z,39.00
2023-01-29T20:40:36.050Z,39.87
2023-01-29T20:43:05.198Z,40.67
2023-01-29T20:45:36.089Z,37.43
2023-01-29T20:48:06.355Z,38.40
2023-01-29T20:50:34.610Z,37.80
2023-01-29T20:53:02.602Z,36.97
2023-01-29T20:55:31.489Z,40.50
2023-01-29T20:58:06.239Z,39.43
2023-01-29T21:00:36.005Z,40.83
2023-01-29T21:03:03.768Z,47.50
2023-01-29T21:05:31.483Z,40.87
2023-01-29T21:07:59.127Z,43.00
2023-01-29T21:10:26.874Z,42.87
2023-01-29T21:12:54.548Z,42.43
2023-01-29T21:15:23.308Z,41.10
2023-01-29T21:17:52.634Z,41.67
2023-01-29T21:20:20.560Z,41.67
2023-01-29T21:22:49.062Z,40.80
2023-01-29T21:25:20.083Z,41.33
2023-01-29T21:27:47.734Z,40.80
2023-01-29T21:30:15.812Z,40.73
2023-01-29T21:32:43.720Z,40.93
2023-01-29T21:35:12.831Z,40.97
2023-01-29T21:37:40.432Z,38.67
2023-01-29T21:40:10.464Z,40.30
2023-01-29T21:42:55.852Z,37.40
2023-01-29T21:45:23.440Z,39.20
2023-01-29T21:47:51.450Z,40.67
2023-01-29T21:50:20.719Z,40.63
2023-01-29T21:52:48.358Z,38.37
2023-01-29T21:55:16.681Z,36.97
2023-01-29T21:57:46.640Z,37.07
2023-01-29T22:00:15.218Z,37.67
2023-01-29T22:02:43.138Z,38.23
2023-01-29T22:05:18.604Z,38.27
2023-01-29T22:07:49.266Z,37.97
2023-01-29T22:10:18.731Z,38.63
2023-01-29T22:12:47.161Z,39.40
2023-01-29T22:15:16.223Z,38.73
2023-01-29T22:17:44.135Z,41.50
2023-01-29T22:20:14.184Z,38.60
2023-01-29T22:22:42.007Z,39.33
2023-01-29T22:25:11.562Z,39.07
2023-01-29T22:27:39.628Z,39.53
2023-01-29T22:30:08.617Z,40.20
2023-01-29T22:32:36.327Z,39.10
2023-01-29T22:35:04.067Z,38.67
2023-01-29T22:37:31.638Z,39.87
2023-01-29T22:39:59.199Z,40.57
2023-01-29T22:42:28.256Z,40.70
2023-01-29T22:44:55.920Z,41.57
2023-01-29T22:47:23.524Z,41.13
2023-01-29T22:49:52.354Z,41.63
2023-01-29T22:52:22.156Z,40.93
2023-01-29T22:54:51.425Z,42.03
2023-01-29T22:57:19.278Z,40.00
2023-01-29T22:59:48.303Z,39.50
2023-01-29T23:02:15.970Z,39.53
2023-01-29T23:04:43.568Z,40.70
2023-01-29T23:07:11.503Z,41.47
2023-01-29T23:09:39.083Z,39.73
2023-01-29T23:12:07.882Z,39.60
2023-01-29T23:14:35.476Z,43.10
2023-01-29T23:17:04.453Z,41.63
2023-01-29T23:19:32.076Z,42.77
2023-01-29T23:21:59.725Z,40.93
2023-01-29T23:24:27.418Z,42.17
2023-01-29T23:27:12.537Z,41.40
2023-01-29T23:29:40.111Z,40.60
2023-01-29T23:32:09.174Z,43.13
2023-01-29T23:34:36.782Z,44.00
2023-01-29T23:37:04.446Z,42.30
2023-01-29T23:39:32.245Z,43.37
2023-01-29T23:42:00.185Z,41.13
2023-01-29T23:44:27.880Z,40.60
2023-01-29T23:46:55.803Z,41.27
2023-01-29T23:49:24.761Z,44.67
2023-01-29T23:51:52.555Z,41.13
2023-01-29T23:54:20.314Z,42.63
2023-01-29T23:56:47.926Z,41.70
2023-01-29T23:59:16.010Z,40.50
